sensor_id;sensor_type;location;lat;lon;timestamp;pressure;altitude;pressure_sealevel;temperature;humidity
77303;BME280;66363;49.828;7.856;2023-02-15T00:00:23;101710.09;;;1.56;87.79
77303;BME280;66363;49.828;7.856;2023-02-15T00:02:48;101704.03;;;1.49;87.68
77303;BME280;66363;49.828;7.856;2023-02-15T00:05:14;101698.00;;;1.38;87.90
77303;BME280;66363;49.828;7.856;2023-02-15T00:07:40;101701.50;;;1.39;88.33
77303;BME280;66363;49.828;7.856;2023-02-15T00:10:07;101700.63;;;1.38;88.64
77303;BME280;66363;49.828;7.856;2023-02-15T00:12:33;101698.00;;;1.40;87.92
77303;BME280;66363;49.828;7.856;2023-02-15T00:14:59;101697.22;;;1.28;88.36
77303;BME280;66363;49.828;7.856;2023-02-15T00:17:27;101698.97;;;1.28;88.26
77303;BME280;66363;49.828;7.856;2023-02-15T00:19:52;101687.69;;;1.23;87.52
77303;BME280;66363;49.828;7.856;2023-02-15T00:22:19;101696.38;;;1.28;87.37
77303;BME280;66363;49.828;7.856;2023-02-15T00:24:44;101706.88;;;1.22;87.69
77303;BME280;66363;49.828;7.856;2023-02-15T00:27:10;101699.00;;;1.23;88.03
77303;BME280;66363;49.828;7.856;2023-02-15T00:29:37;101706.91;;;1.16;87.58
77303;BME280;66363;49.828;7.856;2023-02-15T00:32:03;101705.97;;;1.23;87.87
77303;BME280;66363;49.828;7.856;2023-02-15T00:34:29;101696.41;;;1.20;87.54
77303;BME280;66363;49.828;7.856;2023-02-15T00:36:54;101699.91;;;1.18;87.66
77303;BME280;66363;49.828;7.856;2023-02-15T00:39:20;101693.84;;;1.11;87.39
77303;BME280;66363;49.828;7.856;2023-02-15T00:41:46;101697.34;;;1.10;87.54
77303;BME280;66363;49.828;7.856;2023-02-15T00:44:12;101692.94;;;1.18;87.81
77303;BME280;66363;49.828;7.856;2023-02-15T00:46:39;101685.97;;;1.17;87.37
77303;BME280;66363;49.828;7.856;2023-02-15T00:49:05;101680.78;;;1.10;87.71
77303;BME280;66363;49.828;7.856;2023-02-15T00:51:31;101679.03;;;1.10;87.42
77303;BME280;66363;49.828;7.856;2023-02-15T00:53:57;101685.94;;;1.22;87.75
77303;BME280;66363;49.828;7.856;2023-02-15T00:56:23;101681.56;;;1.27;86.93
77303;BME280;66363;49.828;7.856;2023-02-15T00:58:48;101685.06;;;1.24;87.81
77303;BME280;66363;49.828;7.856;2023-02-15T01:01:16;101680.72;;;1.23;87.89
77303;BME280;66363;49.828;7.856;2023-02-15T01:03:43;101683.34;;;1.22;88.34
77303;BME280;66363;49.828;7.856;2023-02-15T01:06:10;101675.50;;;1.22;88.15
77303;BME280;66363;49.828;7.856;2023-02-15T01:08:36;101679.00;;;1.19;87.36
77303;BME280;66363;49.828;7.856;2023-02-15T01:11:04;101676.38;;;1.19;87.41
77303;BME280;66363;49.828;7.856;2023-02-15T01:13:30;101677.25;;;1.20;86.37
77303;BME280;66363;49.828;7.856;2023-02-15T01:15:55;101679.00;;;1.16;86.46
77303;BME280;66363;49.828;7.856;2023-02-15T01:18:21;101677.28;;;1.15;86.49
77303;BME280;66363;49.828;7.856;2023-02-15T01:20:49;101678.16;;;1.14;86.52
77303;BME280;66363;49.828;7.856;2023-02-15T01:23:15;101679.91;;;1.11;86.51
77303;BME280;66363;49.828;7.856;2023-02-15T01:25:40;101657.41;;;0.88;86.35
77303;BME280;66363;49.828;7.856;2023-02-15T01:28:06;101678.28;;;0.97;86.89
77303;BME280;66363;49.828;7.856;2023-02-15T01:30:32;101676.59;;;0.81;86.92
77303;BME280;66363;49.828;7.856;2023-02-15T01:32:58;101673.19;;;0.76;88.03
77303;BME280;66363;49.828;7.856;2023-02-15T01:35:24;101669.66;;;0.79;87.52
77303;BME280;66363;49.828;7.856;2023-02-15T01:37:51;101674.00;;;0.78;87.58
77303;BME280;66363;49.828;7.856;2023-02-15T01:40:17;101664.47;;;0.74;87.54
77303;BME280;66363;49.828;7.856;2023-02-15T01:42:43;101667.97;;;0.73;87.80
77303;BME280;66363;49.828;7.856;2023-02-15T01:45:19;101666.22;;;0.72;88.45
77303;BME280;66363;49.828;7.856;2023-02-15T01:47:48;101659.16;;;0.86;88.28
77303;BME280;66363;49.828;7.856;2023-02-15T01:50:18;101658.31;;;0.83;88.14
77303;BME280;66363;49.828;7.856;2023-02-15T01:52:49;101659.19;;;0.80;87.97
77303;BME280;66363;49.828;7.856;2023-02-15T01:55:18;101653.06;;;0.89;87.72
77303;BME280;66363;49.828;7.856;2023-02-15T01:57:45;101647.81;;;0.90;86.93
77303;BME280;66363;49.828;7.856;2023-02-15T02:00:13;101646.09;;;0.88;86.99
77303;BME280;66363;49.828;7.856;2023-02-15T02:02:39;101641.75;;;0.82;88.27
77303;BME280;66363;49.828;7.856;2023-02-15T02:05:06;101645.22;;;0.89;87.93
77303;BME280;66363;49.828;7.856;2023-02-15T02:07:34;101646.06;;;0.92;87.51
77303;BME280;66363;49.828;7.856;2023-02-15T02:10:03;101648.69;;;0.92;87.57
77303;BME280;66363;49.828;7.856;2023-02-15T02:12:31;101651.34;;;0.83;87.86
77303;BME280;66363;49.828;7.856;2023-02-15T02:14:58;101646.13;;;0.79;87.66
77303;BME280;66363;49.828;7.856;2023-02-15T02:17:35;101645.28;;;0.78;87.90
77303;BME280;66363;49.828;7.856;2023-02-15T02:20:27;101652.22;;;0.79;88.20
77303;BME280;66363;49.828;7.856;2023-02-15T02:23:09;101652.22;;;0.79;87.79
77303;BME280;66363;49.828;7.856;2023-02-15T02:26:05;101649.69;;;0.75;87.43
77303;BME280;66363;49.828;7.856;2023-02-15T02:31:46;101643.63;;;0.68;88.03
77303;BME280;66363;49.828;7.856;2023-02-15T02:34:21;101638.38;;;0.68;88.01
77303;BME280;66363;49.828;7.856;2023-02-15T02:36:55;101629.66;;;0.72;88.03
77303;BME280;66363;49.828;7.856;2023-02-15T02:39:28;101637.44;;;0.78;87.91
77303;BME280;66363;49.828;7.856;2023-02-15T02:42:01;101629.56;;;0.84;87.47
77303;BME280;66363;49.828;7.856;2023-02-15T02:44:31;101621.72;;;0.87;87.79
77303;BME280;66363;49.828;7.856;2023-02-15T02:47:04;101626.03;;;0.94;87.30
77303;BME280;66363;49.828;7.856;2023-02-15T02:49:35;101628.53;;;1.05;86.66
77303;BME280;66363;49.828;7.856;2023-02-15T02:52:02;101625.91;;;1.08;86.13
77303;BME280;66363;49.828;7.856;2023-02-15T02:54:29;101629.50;;;0.93;86.20
77303;BME280;66363;49.828;7.856;2023-02-15T02:56:59;101620.97;;;0.72;87.57
77303;BME280;66363;49.828;7.856;2023-02-15T02:59:31;101615.63;;;0.85;87.44
77303;BME280;66363;49.828;7.856;2023-02-15T03:02:02;101598.31;;;0.74;87.65
77303;BME280;66363;49.828;7.856;2023-02-15T03:04:33;101608.69;;;0.81;87.59
77303;BME280;66363;49.828;7.856;2023-02-15T03:07:02;101611.31;;;0.80;87.44
77303;BME280;66363;49.828;7.856;2023-02-15T03:09:31;101601.72;;;0.82;87.48
77303;BME280;66363;49.828;7.856;2023-02-15T03:11:59;101588.66;;;0.79;87.61
77303;BME280;66363;49.828;7.856;2023-02-15T03:14:25;101594.66;;;0.96;87.71
77303;BME280;66363;49.828;7.856;2023-02-15T03:16:51;101582.44;;;0.96;86.85
77303;BME280;66363;49.828;7.856;2023-02-15T03:19:20;101595.53;;;0.93;87.50
77303;BME280;66363;49.828;7.856;2023-02-15T03:21:51;101588.59;;;0.89;87.88
77303;BME280;66363;49.828;7.856;2023-02-15T03:24:21;101590.31;;;0.95;87.73
77303;BME280;66363;49.828;7.856;2023-02-15T03:26:50;101579.00;;;0.91;86.65
77303;BME280;66363;49.828;7.856;2023-02-15T03:29:20;101585.19;;;0.78;86.78
77303;BME280;66363;49.828;7.856;2023-02-15T03:31:52;101586.13;;;0.73;87.65
77303;BME280;66363;49.828;7.856;2023-02-15T03:34:19;101580.91;;;0.70;88.07
77303;BME280;66363;49.828;7.856;2023-02-15T03:36:47;101593.06;;;0.74;87.78
77303;BME280;66363;49.828;7.856;2023-02-15T03:39:21;101587.78;;;0.78;87.13
77303;BME280;66363;49.828;7.856;2023-02-15T03:41:49;101580.88;;;0.77;87.47
77303;BME280;66363;49.828;7.856;2023-02-15T03:44:22;101567.84;;;0.68;88.07
77303;BME280;66363;49.828;7.856;2023-02-15T03:46:53;101578.16;;;0.86;87.80
77303;BME280;66363;49.828;7.856;2023-02-15T03:49:23;101568.56;;;0.87;88.14
77303;BME280;66363;49.828;7.856;2023-02-15T03:51:54;101572.94;;;0.86;87.91
77303;BME280;66363;49.828;7.856;2023-02-15T03:54:25;101579.06;;;0.84;88.30
77303;BME280;66363;49.828;7.856;2023-02-15T03:56:51;101580.91;;;0.71;88.89
77303;BME280;66363;49.828;7.856;2023-02-15T03:59:17;101583.41;;;0.82;88.85
77303;BME280;66363;49.828;7.856;2023-02-15T04:01:48;101571.19;;;0.88;87.67
77303;BME280;66363;49.828;7.856;2023-02-15T04:04:20;101572.91;;;0.89;87.33
77303;BME280;66363;49.828;7.856;2023-02-15T04:06:48;101580.78;;;0.86;87.35
77303;BME280;66363;49.828;7.856;2023-02-15T04:09:14;101578.19;;;0.80;87.57
77303;BME280;66363;49.828;7.856;2023-02-15T04:11:41;101589.50;;;0.84;87.57
77303;BME280;66363;49.828;7.856;2023-02-15T04:14:07;101586.91;;;0.82;88.12
77303;BME280;66363;49.828;7.856;2023-02-15T04:16:32;101588.63;;;0.86;88.03
77303;BME280;66363;49.828;7.856;2023-02-15T04:18:58;101590.34;;;0.87;88.03
77303;BME280;66363;49.828;7.856;2023-02-15T04:21:25;101599.06;;;0.85;87.27
77303;BME280;66363;49.828;7.856;2023-02-15T04:23:51;101597.41;;;0.76;87.55
77303;BME280;66363;49.828;7.856;2023-02-15T04:26:16;101601.78;;;0.74;87.58
77303;BME280;66363;49.828;7.856;2023-02-15T04:28:44;101594.84;;;0.67;87.23
77303;BME280;66363;49.828;7.856;2023-02-15T04:31:09;101599.25;;;0.60;86.53
77303;BME280;66363;49.828;7.856;2023-02-15T04:33:35;101601.84;;;0.63;87.23
77303;BME280;66363;49.828;7.856;2023-02-15T04:36:01;101596.56;;;0.73;86.75
77303;BME280;66363;49.828;7.856;2023-02-15T04:38:26;101597.44;;;0.70;86.94
77303;BME280;66363;49.828;7.856;2023-02-15T04:40:52;101589.69;;;0.56;86.85
77303;BME280;66363;49.828;7.856;2023-02-15T04:43:18;101594.91;;;0.56;87.37
77303;BME280;66363;49.828;7.856;2023-02-15T04:45:48;101592.28;;;0.59;87.45
77303;BME280;66363;49.828;7.856;2023-02-15T04:48:14;101587.84;;;0.72;86.94
77303;BME280;66363;49.828;7.856;2023-02-15T04:50:40;101591.31;;;0.76;86.55
77303;BME280;66363;49.828;7.856;2023-02-15T04:53:06;101581.84;;;0.59;86.54
77303;BME280;66363;49.828;7.856;2023-02-15T04:55:31;101587.13;;;0.52;87.50
77303;BME280;66363;49.828;7.856;2023-02-15T04:57:57;101577.47;;;0.60;87.91
77303;BME280;66363;49.828;7.856;2023-02-15T05:00:23;101577.47;;;0.64;87.45
77303;BME280;66363;49.828;7.856;2023-02-15T05:02:50;101573.09;;;0.68;87.83
77303;BME280;66363;49.828;7.856;2023-02-15T05:05:16;101567.91;;;0.62;87.83
77303;BME280;66363;49.828;7.856;2023-02-15T05:07:41;101567.00;;;0.67;88.08
77303;BME280;66363;49.828;7.856;2023-02-15T05:10:08;101564.41;;;0.64;89.00
77303;BME280;66363;49.828;7.856;2023-02-15T05:12:33;101566.13;;;0.67;88.56
77303;BME280;66363;49.828;7.856;2023-02-15T05:14:59;101570.44;;;0.74;87.09
77303;BME280;66363;49.828;7.856;2023-02-15T05:17:25;101568.63;;;0.81;87.60
77303;BME280;66363;49.828;7.856;2023-02-15T05:19:52;101565.19;;;0.77;87.71
77303;BME280;66363;49.828;7.856;2023-02-15T05:22:17;101568.72;;;0.72;87.69
77303;BME280;66363;49.828;7.856;2023-02-15T05:24:43;101567.81;;;0.74;87.62
77303;BME280;66363;49.828;7.856;2023-02-15T05:27:11;101567.84;;;0.70;86.78
77303;BME280;66363;49.828;7.856;2023-02-15T05:29:37;101568.69;;;0.75;86.38
77303;BME280;66363;49.828;7.856;2023-02-15T05:32:02;101567.81;;;0.76;86.60
77303;BME280;66363;49.828;7.856;2023-02-15T05:34:28;101566.09;;;0.73;86.72
77303;BME280;66363;49.828;7.856;2023-02-15T05:36:55;101563.47;;;0.73;86.33
77303;BME280;66363;49.828;7.856;2023-02-15T05:39:21;101560.91;;;0.65;86.58
77303;BME280;66363;49.828;7.856;2023-02-15T05:41:46;101567.03;;;0.58;87.81
77303;BME280;66363;49.828;7.856;2023-02-15T05:44:12;101568.72;;;0.67;87.52
77303;BME280;66363;49.828;7.856;2023-02-15T05:46:38;101553.97;;;0.63;87.32
77303;BME280;66363;49.828;7.856;2023-02-15T05:49:03;101564.38;;;0.66;87.38
77303;BME280;66363;49.828;7.856;2023-02-15T05:51:29;101567.00;;;0.64;87.00
77303;BME280;66363;49.828;7.856;2023-02-15T05:53:56;101568.72;;;0.72;87.07
77303;BME280;66363;49.828;7.856;2023-02-15T05:56:22;101566.88;;;0.80;86.91
77303;BME280;66363;49.828;7.856;2023-02-15T05:58:47;101572.09;;;0.80;86.53
77303;BME280;66363;49.828;7.856;2023-02-15T06:01:15;101579.03;;;0.85;86.70
77303;BME280;66363;49.828;7.856;2023-02-15T06:03:41;101579.94;;;0.80;86.68
77303;BME280;66363;49.828;7.856;2023-02-15T06:06:07;101573.78;;;0.90;86.12
77303;BME280;66363;49.828;7.856;2023-02-15T06:08:33;101579.91;;;0.86;85.85
77303;BME280;66363;49.828;7.856;2023-02-15T06:11:01;101579.00;;;0.91;86.62
77303;BME280;66363;49.828;7.856;2023-02-15T06:13:27;101582.50;;;0.87;86.12
77303;BME280;66363;49.828;7.856;2023-02-15T06:15:53;101578.16;;;0.85;86.28
77303;BME280;66363;49.828;7.856;2023-02-15T06:18:18;101588.66;;;0.79;86.92
77303;BME280;66363;49.828;7.856;2023-02-15T06:20:45;101586.88;;;0.87;87.03
77303;BME280;66363;49.828;7.856;2023-02-15T06:23:11;101590.38;;;0.84;86.95
77303;BME280;66363;49.828;7.856;2023-02-15T06:25:36;101593.00;;;0.78;85.75
77303;BME280;66363;49.828;7.856;2023-02-15T06:28:04;101583.50;;;0.71;85.69
77303;BME280;66363;49.828;7.856;2023-02-15T06:30:29;101587.91;;;0.63;86.28
77303;BME280;66363;49.828;7.856;2023-02-15T06:32:55;101584.44;;;0.59;86.85
77303;BME280;66363;49.828;7.856;2023-02-15T06:35:21;101580.13;;;0.55;86.35
77303;BME280;66363;49.828;7.856;2023-02-15T06:37:46;101582.81;;;0.43;87.16
77303;BME280;66363;49.828;7.856;2023-02-15T06:40:12;101590.56;;;0.54;87.41
77303;BME280;66363;49.828;7.856;2023-02-15T06:42:38;101600.09;;;0.61;87.41
77303;BME280;66363;49.828;7.856;2023-02-15T06:45:06;101596.66;;;0.57;86.88
77303;BME280;66363;49.828;7.856;2023-02-15T06:47:32;101595.75;;;0.60;87.04
77303;BME280;66363;49.828;7.856;2023-02-15T06:49:57;101604.47;;;0.60;87.03
77303;BME280;66363;49.828;7.856;2023-02-15T06:52:23;101598.38;;;0.60;86.88
77303;BME280;66363;49.828;7.856;2023-02-15T06:54:49;101594.91;;;0.55;86.87
77303;BME280;66363;49.828;7.856;2023-02-15T06:57:14;101599.31;;;0.50;87.21
77303;BME280;66363;49.828;7.856;2023-02-15T06:59:40;101598.34;;;0.66;87.25
77303;BME280;66363;49.828;7.856;2023-02-15T07:02:08;101600.09;;;0.65;86.82
77303;BME280;66363;49.828;7.856;2023-02-15T07:04:34;101598.31;;;0.74;86.33
77303;BME280;66363;49.828;7.856;2023-02-15T07:07:00;101598.28;;;0.75;85.21
77303;BME280;66363;49.828;7.856;2023-02-15T07:09:25;101600.03;;;0.76;85.11
77303;BME280;66363;49.828;7.856;2023-02-15T07:11:51;101599.09;;;0.83;85.59
77303;BME280;66363;49.828;7.856;2023-02-15T07:14:17;101603.41;;;0.89;85.23
77303;BME280;66363;49.828;7.856;2023-02-15T07:16:42;101605.16;;;0.90;85.01
77303;BME280;66363;49.828;7.856;2023-02-15T07:19:09;101608.66;;;0.87;85.27
77303;BME280;66363;49.828;7.856;2023-02-15T07:21:35;101609.50;;;0.88;85.31
77303;BME280;66363;49.828;7.856;2023-02-15T07:24:01;101605.13;;;0.91;85.16
77303;BME280;66363;49.828;7.856;2023-02-15T07:26:27;101612.06;;;0.97;84.06
77303;BME280;66363;49.828;7.856;2023-02-15T07:28:53;101612.09;;;0.92;84.61
77303;BME280;66363;49.828;7.856;2023-02-15T07:31:18;101604.25;;;0.95;83.74
77303;BME280;66363;49.828;7.856;2023-02-15T07:33:44;101602.63;;;0.78;84.65
77303;BME280;66363;49.828;7.856;2023-02-15T07:36:11;101606.03;;;0.86;84.27
77303;BME280;66363;49.828;7.856;2023-02-15T07:38:38;101605.19;;;0.84;84.60
77303;BME280;66363;49.828;7.856;2023-02-15T07:41:06;101607.88;;;0.73;85.04
77303;BME280;66363;49.828;7.856;2023-02-15T07:43:33;101600.03;;;0.78;85.07
77303;BME280;66363;49.828;7.856;2023-02-15T07:45:59;101594.75;;;0.82;84.97
77303;BME280;66363;49.828;7.856;2023-02-15T07:48:25;101594.72;;;0.84;85.09
77303;BME280;66363;49.828;7.856;2023-02-15T07:50:50;101592.94;;;0.92;85.05
77303;BME280;66363;49.828;7.856;2023-02-15T07:53:17;101591.16;;;0.95;85.42
77303;BME280;66363;49.828;7.856;2023-02-15T07:55:43;101590.34;;;0.89;85.10
77303;BME280;66363;49.828;7.856;2023-02-15T07:58:09;101581.56;;;0.99;84.98
77303;BME280;66363;49.828;7.856;2023-02-15T08:00:34;101578.00;;;1.08;83.68
77303;BME280;66363;49.828;7.856;2023-02-15T08:03:00;101592.81;;;1.07;83.96
77303;BME280;66363;49.828;7.856;2023-02-15T08:05:25;101587.53;;;1.12;83.80
77303;BME280;66363;49.828;7.856;2023-02-15T08:07:53;101584.88;;;1.18;82.84
77303;BME280;66363;49.828;7.856;2023-02-15T08:10:20;101577.88;;;1.21;84.06
77303;BME280;66363;49.828;7.856;2023-02-15T08:12:46;101577.94;;;1.15;84.25
77303;BME280;66363;49.828;7.856;2023-02-15T08:15:11;101575.28;;;1.21;84.31
77303;BME280;66363;49.828;7.856;2023-02-15T08:17:37;101573.50;;;1.25;84.13
77303;BME280;66363;49.828;7.856;2023-02-15T08:20:03;101576.00;;;1.32;83.39
77303;BME280;66363;49.828;7.856;2023-02-15T08:22:29;101577.69;;;1.40;83.87
77303;BME280;66363;49.828;7.856;2023-02-15T08:24:54;101570.78;;;1.34;83.72
77303;BME280;66363;49.828;7.856;2023-02-15T08:27:21;101562.06;;;1.32;83.71
77303;BME280;66363;49.828;7.856;2023-02-15T08:29:47;101567.28;;;1.33;84.20
77303;BME280;66363;49.828;7.856;2023-02-15T08:32:13;101549.09;;;1.24;82.64
77303;BME280;66363;49.828;7.856;2023-02-15T08:34:40;101551.56;;;1.40;83.08
77303;BME280;66363;49.828;7.856;2023-02-15T08:37:06;101547.94;;;1.53;82.54
77303;BME280;66363;49.828;7.856;2023-02-15T08:39:32;101560.06;;;1.57;82.83
77303;BME280;66363;49.828;7.856;2023-02-15T08:41:58;101552.28;;;1.54;81.92
77303;BME280;66363;49.828;7.856;2023-02-15T08:44:25;101550.56;;;1.53;82.51
77303;BME280;66363;49.828;7.856;2023-02-15T08:46:51;101548.66;;;1.65;81.93
77303;BME280;66363;49.828;7.856;2023-02-15T08:49:18;101544.34;;;1.61;82.21
77303;BME280;66363;49.828;7.856;2023-02-15T08:51:44;101555.56;;;1.73;81.89
77303;BME280;66363;49.828;7.856;2023-02-15T08:54:12;101548.53;;;1.76;81.07
77303;BME280;66363;49.828;7.856;2023-02-15T08:56:39;101541.69;;;1.63;81.89
77303;BME280;66363;49.828;7.856;2023-02-15T08:59:11;101539.00;;;1.72;81.44
77303;BME280;66363;49.828;7.856;2023-02-15T09:01:38;101539.19;;;1.55;83.57
77303;BME280;66363;49.828;7.856;2023-02-15T09:04:05;101537.34;;;1.63;82.01
77303;BME280;66363;49.828;7.856;2023-02-15T09:06:31;101532.03;;;1.69;81.31
77303;BME280;66363;49.828;7.856;2023-02-15T09:08:57;101536.44;;;1.67;80.73
77303;BME280;66363;49.828;7.856;2023-02-15T09:11:24;101540.06;;;1.56;81.42
77303;BME280;66363;49.828;7.856;2023-02-15T09:13:52;101543.63;;;1.47;80.20
77303;BME280;66363;49.828;7.856;2023-02-15T09:16:18;101540.22;;;1.41;80.83
77303;BME280;66363;49.828;7.856;2023-02-15T09:18:46;101542.78;;;1.44;81.82
77303;BME280;66363;49.828;7.856;2023-02-15T09:21:13;101538.41;;;1.46;81.27
77303;BME280;66363;49.828;7.856;2023-02-15T09:23:40;101541.91;;;1.45;82.64
77303;BME280;66363;49.828;7.856;2023-02-15T09:26:08;101550.59;;;1.48;81.89
77303;BME280;66363;49.828;7.856;2023-02-15T09:28:34;101540.81;;;1.65;81.09
77303;BME280;66363;49.828;7.856;2023-02-15T09:31:08;101553.84;;;1.70;81.37
77303;BME280;66363;49.828;7.856;2023-02-15T09:33:35;101549.41;;;1.77;80.20
77303;BME280;66363;49.828;7.856;2023-02-15T09:36:02;101543.16;;;1.87;80.36
77303;BME280;66363;49.828;7.856;2023-02-15T09:38:28;101545.56;;;2.05;79.01
77303;BME280;66363;49.828;7.856;2023-02-15T09:41:03;101546.44;;;2.07;79.43
77303;BME280;66363;49.828;7.856;2023-02-15T09:43:32;101552.44;;;2.12;79.04
77303;BME280;66363;49.828;7.856;2023-02-15T09:46:22;101550.81;;;2.03;78.95
77303;BME280;66363;49.828;7.856;2023-02-15T09:48:53;101547.31;;;2.06;79.25
77303;BME280;66363;49.828;7.856;2023-02-15T09:51:35;101554.47;;;1.90;79.47
77303;BME280;66363;49.828;7.856;2023-02-15T09:54:16;101563.34;;;1.80;80.88
77303;BME280;66363;49.828;7.856;2023-02-15T09:56:51;101559.66;;;1.93;80.42
77303;BME280;66363;49.828;7.856;2023-02-15T09:59:23;101564.75;;;2.07;79.58
77303;BME280;66363;49.828;7.856;2023-02-15T10:02:02;101562.13;;;2.07;79.69
77303;BME280;66363;49.828;7.856;2023-02-15T10:04:42;101564.78;;;2.06;80.30
77303;BME280;66363;49.828;7.856;2023-02-15T10:07:28;101560.31;;;2.09;80.20
77303;BME280;66363;49.828;7.856;2023-02-15T10:10:08;101566.31;;;2.19;79.34
77303;BME280;66363;49.828;7.856;2023-02-15T10:12:49;101566.44;;;2.08;79.37
77303;BME280;66363;49.828;7.856;2023-02-15T10:15:36;101564.78;;;2.06;78.22
77303;BME280;66363;49.828;7.856;2023-02-15T10:18:17;101564.97;;;1.86;79.64
77303;BME280;66363;49.828;7.856;2023-02-15T10:20:51;101568.25;;;2.06;78.58
77303;BME280;66363;49.828;7.856;2023-02-15T10:23:34;101554.00;;;2.27;77.68
77303;BME280;66363;49.828;7.856;2023-02-15T10:26:09;101558.16;;;2.42;78.03
77303;BME280;66363;49.828;7.856;2023-02-15T10:28:43;101558.22;;;2.35;77.86
77303;BME280;66363;49.828;7.856;2023-02-15T10:31:17;101551.13;;;2.44;78.05
77303;BME280;66363;49.828;7.856;2023-02-15T10:33:45;101560.53;;;2.58;77.86
77303;BME280;66363;49.828;7.856;2023-02-15T10:36:32;101559.69;;;2.56;76.87
77303;BME280;66363;49.828;7.856;2023-02-15T10:39:06;101559.59;;;2.62;75.90
77303;BME280;66363;49.828;7.856;2023-02-15T10:41:41;101550.81;;;2.65;75.56
77303;BME280;66363;49.828;7.856;2023-02-15T10:44:20;101547.44;;;2.60;76.34
77303;BME280;66363;49.828;7.856;2023-02-15T10:47:05;101548.22;;;2.63;75.92
77303;BME280;66363;49.828;7.856;2023-02-15T10:49:45;101539.91;;;2.92;75.01
77303;BME280;66363;49.828;7.856;2023-02-15T10:52:25;101526.59;;;3.04;74.48
77303;BME280;66363;49.828;7.856;2023-02-15T10:55:02;101535.75;;;2.81;75.72
77303;BME280;66363;49.828;7.856;2023-02-15T10:57:33;101525.28;;;2.79;76.90
77303;BME280;66363;49.828;7.856;2023-02-15T11:00:08;101531.88;;;3.03;75.36
77303;BME280;66363;49.828;7.856;2023-02-15T11:02:49;101525.38;;;3.24;76.39
77303;BME280;66363;49.828;7.856;2023-02-15T11:05:28;101534.69;;;3.40;74.15
77303;BME280;66363;49.828;7.856;2023-02-15T11:08:00;101525.66;;;3.55;74.44
77303;BME280;66363;49.828;7.856;2023-02-15T11:10:35;101520.66;;;3.41;74.97
77303;BME280;66363;49.828;7.856;2023-02-15T11:13:05;101520.22;;;3.64;75.00
77303;BME280;66363;49.828;7.856;2023-02-15T11:15:36;101511.88;;;3.88;72.46
77303;BME280;66363;49.828;7.856;2023-02-15T11:18:11;101515.59;;;4.18;71.76
77303;BME280;66363;49.828;7.856;2023-02-15T11:20:42;101512.97;;;4.17;71.75
77303;BME280;66363;49.828;7.856;2023-02-15T11:23:14;101509.69;;;4.46;69.79
77303;BME280;66363;49.828;7.856;2023-02-15T11:25:43;101503.28;;;4.59;69.28
77303;BME280;66363;49.828;7.856;2023-02-15T11:28:16;101503.41;;;4.53;68.44
77303;BME280;66363;49.828;7.856;2023-02-15T11:30:46;101505.38;;;4.43;69.03
77303;BME280;66363;49.828;7.856;2023-02-15T11:33:17;101501.44;;;4.24;70.33
77303;BME280;66363;49.828;7.856;2023-02-15T11:35:50;101494.31;;;4.30;68.95
77303;BME280;66363;49.828;7.856;2023-02-15T11:38:19;101493.00;;;4.11;69.08
77303;BME280;66363;49.828;7.856;2023-02-15T11:40:49;101491.28;;;4.47;68.32
77303;BME280;66363;49.828;7.856;2023-02-15T11:43:21;101480.16;;;4.71;67.66
77303;BME280;66363;49.828;7.856;2023-02-15T11:45:50;101477.56;;;4.70;67.67
77303;BME280;66363;49.828;7.856;2023-02-15T11:48:16;101472.44;;;4.99;66.95
77303;BME280;66363;49.828;7.856;2023-02-15T11:50:42;101471.25;;;5.11;67.06
77303;BME280;66363;49.828;7.856;2023-02-15T11:53:12;101465.47;;;4.97;68.50
77303;BME280;66363;49.828;7.856;2023-02-15T11:55:39;101462.44;;;5.14;69.06
77303;BME280;66363;49.828;7.856;2023-02-15T11:58:22;101471.34;;;5.40;67.65
77303;BME280;66363;49.828;7.856;2023-02-15T12:00:51;101460.84;;;5.70;67.10
77303;BME280;66363;49.828;7.856;2023-02-15T12:03:24;101452.69;;;5.77;67.09
77303;BME280;66363;49.828;7.856;2023-02-15T12:05:56;101450.00;;;5.50;67.31
77303;BME280;66363;49.828;7.856;2023-02-15T12:08:23;101457.06;;;5.47;67.88
77303;BME280;66363;49.828;7.856;2023-02-15T12:10:58;101462.13;;;5.55;66.61
77303;BME280;66363;49.828;7.856;2023-02-15T12:13:27;101455.88;;;5.59;65.62
77303;BME280;66363;49.828;7.856;2023-02-15T12:15:54;101453.31;;;5.25;69.88
77303;BME280;66363;49.828;7.856;2023-02-15T12:18:33;101458.97;;;5.44;69.03
77303;BME280;66363;49.828;7.856;2023-02-15T12:21:02;101455.19;;;5.53;68.59
77303;BME280;66363;49.828;7.856;2023-02-15T12:23:28;101455.50;;;5.42;68.27
77303;BME280;66363;49.828;7.856;2023-02-15T12:25:55;101443.69;;;5.24;68.57
77303;BME280;66363;49.828;7.856;2023-02-15T12:28:29;101441.25;;;4.86;70.73
77303;BME280;66363;49.828;7.856;2023-02-15T12:30:56;101434.56;;;4.72;71.41
77303;BME280;66363;49.828;7.856;2023-02-15T12:33:25;101434.44;;;4.77;71.00
77303;BME280;66363;49.828;7.856;2023-02-15T12:35:57;101430.13;;;4.74;71.44
77303;BME280;66363;49.828;7.856;2023-02-15T12:38:24;101437.16;;;4.74;71.49
77303;BME280;66363;49.828;7.856;2023-02-15T12:40:58;101430.09;;;4.76;71.73
77303;BME280;66363;49.828;7.856;2023-02-15T12:43:26;101422.13;;;4.79;70.76
77303;BME280;66363;49.828;7.856;2023-02-15T12:45:52;101427.28;;;4.84;71.45
77303;BME280;66363;49.828;7.856;2023-02-15T12:48:19;101417.84;;;4.75;72.03
77303;BME280;66363;49.828;7.856;2023-02-15T12:50:46;101419.41;;;4.82;72.09
77303;BME280;66363;49.828;7.856;2023-02-15T12:53:16;101415.13;;;4.78;70.37
77303;BME280;66363;49.828;7.856;2023-02-15T12:55:54;101412.97;;;4.61;72.16
77303;BME280;66363;49.828;7.856;2023-02-15T12:58:21;101401.25;;;4.73;71.39
77303;BME280;66363;49.828;7.856;2023-02-15T13:01:02;101404.78;;;5.04;70.42
77303;BME280;66363;49.828;7.856;2023-02-15T13:03:27;101400.19;;;5.13;69.29
77303;BME280;66363;49.828;7.856;2023-02-15T13:05:54;101404.38;;;5.20;70.54
77303;BME280;66363;49.828;7.856;2023-02-15T13:08:21;101393.56;;;5.29;68.80
77303;BME280;66363;49.828;7.856;2023-02-15T13:10:54;101393.03;;;5.47;68.54